Time;durP1;ratioP1;P1;durP2;ratioP2;P2;SDS_P1;SDS_P2;PMS_P1;PMS_P2;Temp;Humidity;BMP_temperature;BMP_pressure;BME280_temperature;BME280_humidity;BME280_pressure;Samples;Min_cycle;Max_cycle;Signal;HPM_P1;HPM_P2
2023/06/26 00:01:30;;;;;;;;;;;21.20;77.60;;;-151.14;100.00;62537.16;5091458;28;19927;-85
2023/06/26 00:03:59;;;;;;;;;;;21.20;77.70;;;18.08;100.00;62537.16;5091620;28;19920;-85
2023/06/26 00:06:27;;;;;;;;;;;21.20;77.70;;;-151.14;100.00;62537.16;5091700;28;19920;-85
2023/06/26 00:08:55;;;;;;;;;;;21.20;77.70;;;20.51;100.00;62537.16;5090636;28;19942;-85
2023/06/26 00:11:23;;;;;;;;;;;21.20;77.70;;;-151.14;100.00;62537.16;5089843;28;19920;-85
2023/06/26 00:13:51;;;;;;;;;;;21.20;77.70;;;-151.14;100.00;62537.16;5073567;28;19920;-85
2023/06/26 00:16:19;;;;;;;;;;;21.30;77.80;;;-151.14;100.00;62537.16;5073657;28;19920;-85
2023/06/26 00:18:48;;;;;;;;;;;21.20;77.70;;;-151.14;100.00;62537.16;5090551;28;20124;-85
2023/06/26 00:21:16;;;;;;;;;;;21.20;77.70;;;-151.14;100.00;62537.16;5073065;28;19920;-85
2023/06/26 00:23:44;;;;;;;;;;;21.20;77.80;;;-151.14;100.00;62537.16;5090199;28;19926;-84
2023/06/26 00:26:12;;;;;;;;;;;21.20;77.80;;;-151.14;100.00;62537.16;5073688;28;19927;-85
2023/06/26 00:28:40;;;;;;;;;;;21.20;77.70;;;-151.14;100.00;62537.16;5073370;28;19920;-85
2023/06/26 00:31:08;;;;;;;;;;;21.30;77.80;;;-151.14;100.00;62537.16;5091200;28;19920;-85
2023/06/26 00:33:36;;;;;;;;;;;21.30;77.60;;;-151.14;100.00;62537.16;5073434;28;19926;-85
2023/06/26 00:36:05;;;;;;;;;;;21.30;77.70;;;-151.14;100.00;62537.16;5090168;28;19920;-85
2023/06/26 00:38:33;;;;;;;;;;;21.30;77.70;;;;;;5090148;28;19926;-85
2023/06/26 00:41:01;;;;;;;;;;;21.30;77.60;;;-151.14;100.00;62537.16;5091119;28;19926;-85
2023/06/26 00:43:30;;;;;;;;;;;21.20;77.60;;;-151.14;100.00;62537.16;5089740;28;20318;-85
2023/06/26 00:45:58;;;;;;;;;;;21.30;77.60;;;-151.14;100.00;62537.16;5090113;28;19921;-85
2023/06/26 00:48:26;;;;;;;;;;;21.20;77.60;;;-151.14;100.00;62537.16;5091426;28;19927;-85
2023/06/26 00:50:54;;;;;;;;;;;21.20;77.60;;;18.08;100.00;62537.16;5077049;28;19920;-85
2023/06/26 00:53:23;;;;;;;;;;;21.20;77.60;;;-151.14;100.00;62537.16;5076298;28;19927;-84
2023/06/26 00:55:51;;;;;;;;;;;21.30;77.70;;;-151.14;100.00;62537.16;5093684;28;19920;-85
2023/06/26 00:58:19;;;;;;;;;;;21.20;77.60;;;-151.14;100.00;62537.16;5093699;28;20235;-85
2023/06/26 01:00:49;;;;;;;;;;;21.20;77.60;;;18.08;100.00;62537.16;5093430;28;19928;-85
2023/06/26 01:03:17;;;;;;;;;;;21.20;77.60;;;-151.14;100.00;62537.16;5075997;28;19920;-85
2023/06/26 01:05:49;;;;;;;;;;;21.20;77.60;;;-151.14;100.00;62537.16;5093549;28;20112;-85
2023/06/26 01:08:19;;;;;;;;;;;21.20;77.60;;;-151.14;100.00;62537.16;5093679;28;19927;-85
2023/06/26 01:10:48;;;;;;;;;;;21.20;77.70;;;-151.14;100.00;62537.16;5076445;28;19920;-85
2023/06/26 01:13:16;;;;;;;;;;;21.20;77.70;;;-151.14;100.00;62537.16;5092837;28;20116;-85
2023/06/26 01:15:44;;;;;;;;;;;21.20;77.60;;;-151.14;100.00;62537.16;5093135;28;19920;-85
2023/06/26 01:18:15;;;;;;;;;;;21.20;77.70;;;-151.14;100.00;62537.16;5076500;28;19920;-85
2023/06/26 01:20:43;;;;;;;;;;;21.20;77.60;;;-151.14;100.00;62537.16;5076389;28;19927;-84
2023/06/26 01:23:15;;;;;;;;;;;21.20;77.60;;;-151.14;100.00;62537.16;5092346;28;19926;-85
2023/06/26 01:25:53;;;;;;;;;;;21.20;77.60;;;20.50;100.00;62537.16;5093205;28;19920;-84
2023/06/26 01:28:22;;;;;;;;;;;21.20;77.60;;;-151.14;100.00;62537.16;5076299;28;19927;-85
2023/06/26 01:30:51;;;;;;;;;;;21.20;77.70;;;-151.14;100.00;62537.16;5093124;28;20120;-85
2023/06/26 01:33:19;;;;;;;;;;;21.20;77.70;;;18.08;100.00;62537.16;5092393;28;19926;-84
2023/06/26 01:35:47;;;;;;;;;;;21.20;78.60;;;20.49;100.00;62537.16;5076136;28;20089;-84
2023/06/26 01:38:16;;;;;;;;;;;21.20;77.70;;;18.08;100.00;62537.16;5076177;28;20116;-85
2023/06/26 01:40:44;;;;;;;;;;;21.20;77.60;;;-151.14;100.00;62537.16;5092874;28;19920;-85
2023/06/26 01:43:17;;;;;;;;;;;21.20;77.60;;;-151.14;100.00;62537.16;5093759;28;19921;-84
2023/06/26 01:45:46;;;;;;;;;;;21.20;77.70;;;-151.14;100.00;62537.16;5092663;28;20207;-85
2023/06/26 01:48:14;;;;;;;;;;;21.20;77.70;;;-151.14;100.00;62537.16;5092969;28;20224;-86
2023/06/26 01:50:43;;;;;;;;;;;21.20;77.70;;;-151.14;100.00;62537.16;5075704;28;20040;-85
2023/06/26 01:53:12;;;;;;;;;;;21.20;77.60;;;-151.14;100.00;62537.16;5075241;28;19920;-85
2023/06/26 01:55:42;;;;;;;;;;;21.20;77.70;;;-151.14;100.00;62537.16;5092410;28;19984;-85
2023/06/26 01:58:10;;;;;;;;;;;21.20;77.70;;;20.47;100.00;62537.16;5092581;28;19920;-85
2023/06/26 02:00:37;;;;;;;;;;;21.20;77.80;;;;;;5075090;28;19920;-86
2023/06/26 02:03:07;;;;;;;;;;;21.20;77.70;;;-151.14;100.00;62537.16;5091910;28;19920;-86
2023/06/26 02:05:35;;;;;;;;;;;21.20;77.70;;;-151.14;100.00;62537.16;5092360;28;19942;-85
2023/06/26 02:08:03;;;;;;;;;;;21.20;77.50;;;-151.14;100.00;62537.16;5075668;28;20411;-85
2023/06/26 02:10:32;;;;;;;;;;;21.20;77.50;;;20.44;100.00;62537.16;5075470;28;19920;-86
2023/06/26 02:13:00;;;;;;;;;;;21.20;77.50;;;20.44;100.00;62537.16;5074940;28;19920;-86
2023/06/26 02:15:28;;;;;;;;;;;21.20;77.60;;;-151.14;100.00;62537.16;5091383;28;19920;-86
2023/06/26 02:17:56;;;;;;;;;;;21.20;77.50;;;-151.14;100.00;62537.16;5092009;28;20260;-85
2023/06/26 02:20:25;;;;;;;;;;;21.10;77.60;;;18.24;100.00;62537.16;5075293;28;20212;-86
2023/06/26 02:22:53;;;;;;;;;;;21.10;77.50;;;-151.14;100.00;62537.16;5074926;28;19920;-85
2023/06/26 02:25:21;;;;;;;;;;;21.10;77.60;;;-151.14;100.00;62537.16;5091775;28;19936;-86
2023/06/26 02:27:49;;;;;;;;;;;21.10;77.70;;;-151.14;100.00;62537.16;5075462;28;19920;-85
2023/06/26 02:30:17;;;;;;;;;;;21.10;77.70;;;18.08;100.00;62537.16;5075061;28;19927;-84
2023/06/26 02:32:45;;;;;;;;;;;21.10;77.60;;;-151.14;100.00;62537.16;5074826;28;19920;-86
2023/06/26 02:35:13;;;;;;;;;;;21.10;77.40;;;-151.14;100.00;62537.16;5075114;28;19920;-86
2023/06/26 02:37:45;;;;;;;;;;;21.10;77.50;;;-151.14;100.00;62537.16;5091850;28;19943;-85
2023/06/26 02:40:13;;;;;;;;;;;21.10;77.40;;;-151.14;100.00;62537.16;5091813;28;19926;-85
2023/06/26 02:42:42;;;;;;;;;;;21.10;77.30;;;60.43;100.00;62537.16;5074597;28;19920;-86
2023/06/26 02:45:11;;;;;;;;;;;21.10;77.30;;;-151.14;100.00;62537.16;5108617;28;19927;-86
2023/06/26 02:47:39;;;;;;;;;;;21.10;77.40;;;-151.14;100.00;62537.16;5075076;28;20115;-86
2023/06/26 02:50:10;;;;;;;;;;;21.10;77.40;;;-151.14;100.00;62537.16;5091596;28;20366;-86
2023/06/26 02:52:59;;;;;;;;;;;21.10;77.60;;;;;;5080502;28;20230;-85
2023/06/26 02:55:27;;;;;;;;;;;21.10;77.60;;;-151.14;100.00;62537.16;5074565;28;19920;-86
2023/06/26 02:57:56;;;;;;;;;;;21.10;77.60;;;-151.14;100.00;62537.16;5075092;28;19920;-85
2023/06/26 03:00:25;;;;;;;;;;;21.10;77.40;;;-151.14;100.00;62537.16;5074548;28;19921;-85
2023/06/26 03:02:55;;;;;;;;;;;21.10;77.40;;;-151.14;100.00;62537.16;5091113;28;19920;-86
2023/06/26 03:05:24;;;;;;;;;;;21.10;77.40;;;-151.14;100.00;62537.16;5091188;28;19928;-85
2023/06/26 03:07:53;;;;;;;;;;;21.10;77.20;;;28.66;100.00;62537.16;5091631;28;20226;-85
2023/06/26 03:10:23;;;;;;;;;;;21.10;77.20;;;39.25;100.00;62537.16;5073596;28;20115;-86
2023/06/26 03:12:51;;;;;;;;;;;21.10;77.20;;;-151.14;100.00;62537.16;5074035;28;19920;-86
2023/06/26 03:15:20;;;;;;;;;;;21.10;77.30;;;-151.14;100.00;62537.16;5090900;28;19955;-85
2023/06/26 03:17:48;;;;;;;;;;;21.10;77.40;;;-151.14;100.00;62537.16;5105415;28;20212;-86
2023/06/26 03:20:25;;;;;;;;;;;21.10;77.40;;;-151.14;100.00;62537.16;5091167;28;19920;-85
2023/06/26 03:22:55;;;;;;;;;;;21.10;77.40;;;-151.14;100.00;62537.16;5090661;28;19924;-85
2023/06/26 03:25:26;;;;;;;;;;;21.10;77.40;;;-151.14;100.00;62537.16;5074173;28;19926;-85
2023/06/26 03:28:14;;;;;;;;;;;21.10;77.40;;;-151.14;100.00;62537.16;5074205;28;19920;-86
2023/06/26 03:30:42;;;;;;;;;;;21.10;77.40;;;-151.14;100.00;62537.16;5074026;28;19920;-86
2023/06/26 03:33:10;;;;;;;;;;;21.10;77.40;;;-151.14;100.00;62537.16;5073910;28;20119;-86
2023/06/26 03:35:39;;;;;;;;;;;21.00;77.30;;;18.08;100.00;62537.16;5073720;28;20215;-85
2023/06/26 03:38:07;;;;;;;;;;;21.10;77.50;;;-151.14;100.00;62537.16;5074286;28;19926;-84
2023/06/26 03:40:36;;;;;;;;;;;21.00;77.30;;;20.33;100.00;62537.16;5091122;28;19920;-85
2023/06/26 03:43:04;;;;;;;;;;;21.00;77.40;;;;;;5073543;28;19934;-85
2023/06/26 03:45:42;;;;;;;;;;;21.00;77.50;;;-151.14;100.00;62537.16;5090860;28;19926;-85
2023/06/26 03:48:10;;;;;;;;;;;21.00;77.60;;;-151.14;100.00;62537.16;5074303;28;19920;-86
2023/06/26 03:50:38;;;;;;;;;;;21.10;77.70;;;-151.14;100.00;62537.16;5073914;28;19920;-85
2023/06/26 03:53:06;;;;;;;;;;;21.00;77.50;;;-151.14;100.00;62537.16;5107319;28;19920;-85
2023/06/26 03:55:34;;;;;;;;;;;21.00;77.50;;;-151.14;100.00;62537.16;5073926;28;19920;-85
2023/06/26 03:58:04;;;;;;;;;;;21.10;77.60;;;-151.14;100.00;62537.16;5074003;28;19926;-85
2023/06/26 04:00:32;;;;;;;;;;;21.00;77.50;;;-151.14;100.00;62537.16;5073771;28;19920;-85
2023/06/26 04:03:00;;;;;;;;;;;21.00;77.50;;;-151.14;100.00;62537.16;5073440;28;19927;-86
2023/06/26 04:05:27;;;;;;;;;;;21.10;77.60;;;-151.14;100.00;62537.16;5090468;28;19927;-85
2023/06/26 04:07:56;;;;;;;;;;;21.10;77.60;;;-151.14;100.00;62537.16;5073743;28;19926;-86
2023/06/26 04:10:24;;;;;;;;;;;21.10;77.60;;;18.24;100.00;62537.16;5073445;28;19920;-86
2023/06/26 04:12:53;;;;;;;;;;;21.10;77.60;;;-151.14;100.00;62537.16;5073182;28;19920;-86
2023/06/26 04:15:22;;;;;;;;;;;21.10;77.60;;;-151.14;100.00;62537.16;5073572;28;19927;-86
2023/06/26 04:17:50;;;;;;;;;;;21.10;77.60;;;-151.14;100.00;62537.16;5090338;28;20115;-86
2023/06/26 04:20:17;;;;;;;;;;;21.10;77.60;;;;;;5090416;28;19926;-85
2023/06/26 04:22:45;;;;;;;;;;;21.10;77.70;;;-151.14;100.00;62537.16;5089402;28;19920;-86
2023/06/26 04:25:13;;;;;;;;;;;21.10;77.70;;;-151.14;100.00;62537.16;5090384;28;19927;-86
2023/06/26 04:27:41;;;;;;;;;;;21.10;77.70;;;-151.14;100.00;62537.16;5090343;28;19942;-86
2023/06/26 04:30:12;;;;;;;;;;;21.10;77.80;;;-151.14;100.00;62537.16;5073516;28;19942;-86
2023/06/26 04:32:41;;;;;;;;;;;21.10;77.80;;;-151.14;100.00;62537.16;5089469;28;19926;-86
2023/06/26 04:35:09;;;;;;;;;;;21.10;77.70;;;-151.14;100.00;62537.16;5090094;28;19927;-86
2023/06/26 04:37:38;;;;;;;;;;;21.10;77.70;;;-151.14;100.00;62537.16;5107088;28;20226;-85
2023/06/26 04:40:06;;;;;;;;;;;21.10;77.70;;;;;;5090287;28;19920;-84
2023/06/26 04:42:34;;;;;;;;;;;21.10;77.70;;;-151.14;100.00;62537.16;5089269;28;19920;-85
2023/06/26 04:45:03;;;;;;;;;;;21.10;77.70;;;-151.14;100.00;62537.16;5090091;28;19927;-85
2023/06/26 04:47:31;;;;;;;;;;;21.10;77.70;;;-151.14;100.00;62537.16;5073277;28;19920;-85
2023/06/26 04:50:00;;;;;;;;;;;21.20;77.70;;;;;;5090161;28;19927;-85
2023/06/26 04:52:28;;;;;;;;;;;21.20;77.40;;;-151.14;100.00;62537.16;5089187;28;19926;-86
2023/06/26 04:54:56;;;;;;;;;;;21.20;77.20;;;-151.14;100.00;62537.16;5073296;28;20224;-86
2023/06/26 04:57:24;;;;;;;;;;;21.20;77.30;;;-151.14;100.00;62537.16;5072853;28;19926;-85
2023/06/26 04:59:51;;;;;;;;;;;21.20;77.20;;;;;;5090016;28;19920;-86
2023/06/26 05:02:19;;;;;;;;;;;21.30;77.30;;;-151.14;100.00;62537.16;5072374;28;19926;-85
2023/06/26 05:04:48;;;;;;;;;;;21.30;77.30;;;-151.14;100.00;62537.16;5089939;28;20481;-85
2023/06/26 05:07:17;;;;;;;;;;;21.30;77.20;;;-151.14;100.00;62537.16;5089588;28;20230;-87
2023/06/26 05:09:45;;;;;;;;;;;21.30;77.20;;;19.40;100.00;62537.16;5089679;28;19920;-85
2023/06/26 05:12:13;;;;;;;;;;;21.30;77.20;;;-151.14;100.00;62537.16;5088852;28;19921;-85
2023/06/26 05:14:41;;;;;;;;;;;21.30;77.10;;;-151.14;100.00;62537.16;5089712;28;19927;-85
2023/06/26 05:17:09;;;;;;;;;;;21.30;77.00;;;-151.14;100.00;62537.16;5089609;28;19926;-85
2023/06/26 05:19:37;;;;;;;;;;;21.30;77.00;;;-151.14;100.00;62537.16;5072925;28;19919;-85
2023/06/26 05:22:07;;;;;;;;;;;21.30;77.00;;;-151.14;100.00;62537.16;5088973;28;19920;-85
2023/06/26 05:24:38;;;;;;;;;;;21.40;76.90;;;-151.14;100.00;62537.16;5089695;28;19920;-86
2023/06/26 05:27:08;;;;;;;;;;;21.40;76.80;;;39.25;100.00;62537.16;5089396;28;19927;-86
2023/06/26 05:29:36;;;;;;;;;;;21.40;76.80;;;20.77;100.00;62537.16;5072652;28;19920;-86
2023/06/26 05:32:05;;;;;;;;;;;21.40;76.80;;;-151.14;100.00;62537.16;5089169;28;20124;-86
2023/06/26 05:34:34;;;;;;;;;;;21.50;76.70;;;-151.14;100.00;62537.16;5074147;28;20089;-86
2023/06/26 05:37:02;;;;;;;;;;;21.50;76.70;;;-151.14;100.00;62537.16;5094015;28;20120;-85
2023/06/26 05:39:30;;;;;;;;;;;21.50;76.60;;;-151.14;100.00;62537.16;5092756;28;19942;-85
2023/06/26 05:42:00;;;;;;;;;;;21.60;75.70;;;-151.14;100.00;62537.16;5075378;28;19920;-85
2023/06/26 05:44:28;;;;;;;;;;;21.60;76.40;;;-151.14;100.00;62537.16;5075890;28;19927;-86
2023/06/26 05:46:56;;;;;;;;;;;21.60;76.40;;;-151.14;100.00;62537.16;5092920;28;20204;-85
2023/06/26 05:49:24;;;;;;;;;;;21.70;76.30;;;-151.14;100.00;62537.16;5092830;28;20073;-87
2023/06/26 05:51:52;;;;;;;;;;;21.70;76.10;;;-151.14;100.00;62537.16;5075256;28;19920;-87
2023/06/26 05:54:21;;;;;;;;;;;21.70;76.00;;;-151.14;100.00;62537.16;5092715;28;19924;-86
2023/06/26 05:56:49;;;;;;;;;;;21.70;75.90;;;21.01;100.00;62537.16;5092533;28;19927;-87
2023/06/26 05:59:19;;;;;;;;;;;21.70;75.80;;;-151.14;100.00;62537.16;5092509;28;19920;-86
2023/06/26 06:01:47;;;;;;;;;;;21.70;75.80;;;-151.14;100.00;62537.16;5092001;28;19920;-86
2023/06/26 06:04:15;;;;;;;;;;;21.70;75.80;;;-151.14;100.00;62537.16;5075580;28;19920;-86
2023/06/26 06:06:42;;;;;;;;;;;21.70;75.80;;;18.08;100.00;62537.16;5093462;28;19920;-86
2023/06/26 06:09:10;;;;;;;;;;;21.70;75.70;;;-151.14;100.00;62537.16;5092452;28;19924;-86
2023/06/26 06:11:38;;;;;;;;;;;21.70;75.70;;;-151.14;100.00;62537.16;5091689;28;19920;-86
2023/06/26 06:14:06;;;;;;;;;;;21.80;75.80;;;-151.14;100.00;62537.16;5092374;28;19920;-87
2023/06/26 06:16:36;;;;;;;;;;;21.70;75.60;;;21.00;100.00;62537.16;5092227;28;20152;-87
2023/06/26 06:19:06;;;;;;;;;;;21.70;75.70;;;21.01;100.00;62537.16;5092322;28;19919;-86
2023/06/26 06:21:34;;;;;;;;;;;21.70;75.70;;;-151.14;100.00;62537.16;5074815;28;19920;-87
2023/06/26 06:24:03;;;;;;;;;;;21.70;75.50;;;18.24;100.00;62537.16;5091967;28;19927;-87
2023/06/26 06:26:31;;;;;;;;;;;21.70;75.60;;;-151.14;100.00;62537.16;5092147;28;19920;-87
2023/06/26 06:28:59;;;;;;;;;;;21.70;75.50;;;-151.14;100.00;62537.16;5092055;28;19920;-87
2023/06/26 06:31:28;;;;;;;;;;;21.70;75.50;;;-151.14;100.00;62537.16;5091428;28;19935;-87
2023/06/26 06:33:57;;;;;;;;;;;21.60;74.80;;;-151.14;100.00;62537.16;5075098;28;19927;-87
2023/06/26 06:36:25;;;;;;;;;;;21.60;74.90;;;-151.14;100.00;62537.16;5093055;28;19926;-86
2023/06/26 06:38:53;;;;;;;;;;;21.70;75.20;;;-151.14;100.00;62537.16;5091920;28;19920;-87
2023/06/26 06:41:21;;;;;;;;;;;21.70;75.70;;;-151.14;100.00;62537.16;5091322;28;19935;-87
2023/06/26 06:43:49;;;;;;;;;;;21.70;75.70;;;-151.14;100.00;62537.16;5075085;28;19928;-86
2023/06/26 06:46:17;;;;;;;;;;;21.70;75.70;;;-151.14;100.00;62537.16;5091689;28;19920;-87
2023/06/26 06:48:46;;;;;;;;;;;21.80;75.60;;;-151.14;100.00;62537.16;5091822;28;19954;-87
2023/06/26 06:51:15;;;;;;;;;;;21.80;75.20;;;-151.14;100.00;62537.16;5074352;28;19926;-87
2023/06/26 06:53:43;;;;;;;;;;;21.80;75.90;;;-151.14;100.00;62537.16;5074856;28;19920;-87
2023/06/26 06:56:11;;;;;;;;;;;21.90;75.20;;;-151.14;100.00;62537.16;5091724;28;19927;-87
2023/06/26 06:58:42;;;;;;;;;;;21.90;76.10;;;-151.14;100.00;62537.16;5091668;28;19920;-87
2023/06/26 07:01:10;;;;;;;;;;;21.90;75.20;;;-151.14;100.00;62537.16;5073962;28;19920;-86
2023/06/26 07:03:38;;;;;;;;;;;21.90;75.30;;;-151.14;100.00;62537.16;5074611;28;19926;-87
2023/06/26 07:06:06;;;;;;;;;;;21.90;75.20;;;-151.14;100.00;62537.16;5074503;28;19927;-86
2023/06/26 07:08:36;;;;;;;;;;;21.90;75.20;;;-151.14;100.00;62537.16;5091483;28;20225;-86
2023/06/26 07:11:04;;;;;;;;;;;22.00;74.90;;;-151.14;100.00;62537.16;5091325;28;19920;-87
2023/06/26 07:13:32;;;;;;;;;;;22.00;74.90;;;21.39;100.00;62537.16;5074374;28;19926;-87
2023/06/26 07:16:00;;;;;;;;;;;22.10;75.60;;;-151.14;100.00;62537.16;5108230;28;19920;-87
2023/06/26 07:18:28;;;;;;;;;;;22.10;74.80;;;-151.14;100.00;62537.16;5071095;28;19943;-87
2023/06/26 07:20:56;;;;;;;;;;;22.00;74.70;;;-151.14;100.00;62537.16;5071249;28;19921;-87
2023/06/26 07:23:24;;;;;;;;;;;22.00;74.70;;;-151.14;100.00;62537.16;5070303;28;19921;-87
2023/06/26 07:25:53;;;;;;;;;;;22.00;74.70;;;-151.14;100.00;62537.16;5054327;28;19920;-87
2023/06/26 07:28:21;;;;;;;;;;;22.00;74.70;;;-151.14;100.00;62537.16;5087876;28;19928;-87
2023/06/26 07:30:49;;;;;;;;;;;22.00;74.70;;;-151.14;100.00;62537.16;5054162;28;20116;-87
2023/06/26 07:33:17;;;;;;;;;;;22.00;74.70;;;-151.14;100.00;62537.16;5053916;28;19920;-86
2023/06/26 07:35:45;;;;;;;;;;;21.90;74.80;;;-151.14;100.00;62537.16;5053947;28;19921;-86
2023/06/26 07:38:13;;;;;;;;;;;21.90;74.70;;;-151.14;100.00;62537.16;5071159;28;19920;-87
2023/06/26 07:40:41;;;;;;;;;;;21.90;74.80;;;-151.14;100.00;62537.16;5070865;28;20109;-86
2023/06/26 07:43:10;;;;;;;;;;;21.90;74.10;;;-151.14;100.00;62537.16;5087043;28;19920;-86
2023/06/26 07:45:38;;;;;;;;;;;21.80;74.50;;;-151.14;100.00;62537.16;5087688;28;19920;-86
2023/06/26 07:48:09;;;;;;;;;;;21.90;74.80;;;-151.14;100.00;62537.16;5072184;28;20207;-85
2023/06/26 07:50:37;;;;;;;;;;;21.80;74.80;;;-151.14;100.00;62537.16;5070752;28;19921;-86
2023/06/26 07:53:06;;;;;;;;;;;21.90;74.90;;;-151.14;100.00;62537.16;5070346;28;20249;-85
2023/06/26 07:55:33;;;;;;;;;;;21.90;74.50;;;-151.14;100.00;62537.16;5071941;28;19942;-85
2023/06/26 07:58:02;;;;;;;;;;;22.00;74.20;;;-151.14;100.00;62537.16;5070175;28;19920;-86
2023/06/26 08:00:31;;;;;;;;;;;22.00;74.30;;;-151.14;100.00;62537.16;5053990;28;19925;-85
2023/06/26 08:02:59;;;;;;;;;;;22.00;74.40;;;-151.14;100.00;62537.16;5053596;28;19921;-85
2023/06/26 08:05:27;;;;;;;;;;;22.00;74.20;;;-151.14;100.00;62537.16;5070541;28;19927;-85
2023/06/26 08:07:55;;;;;;;;;;;22.10;74.50;;;-151.14;100.00;62537.16;5054003;28;19921;-85
2023/06/26 08:10:23;;;;;;;;;;;22.10;74.40;;;-151.14;100.00;62537.16;5071602;28;19927;-85
2023/06/26 08:12:52;;;;;;;;;;;22.00;74.40;;;-151.14;100.00;62537.16;5053401;28;19924;-85
2023/06/26 08:15:20;;;;;;;;;;;22.00;74.40;;;-151.14;100.00;62537.16;5053899;28;19927;-85
2023/06/26 08:17:50;;;;;;;;;;;22.00;74.50;;;-151.14;100.00;62537.16;5087448;28;19920;-86
2023/06/26 08:20:19;;;;;;;;;;;22.10;74.50;;;-151.14;100.00;62537.16;5070364;28;19929;-85
2023/06/26 08:22:49;;;;;;;;;;;22.10;74.50;;;-151.14;100.00;62537.16;5086737;28;19920;-84
2023/06/26 08:25:17;;;;;;;;;;;22.10;74.30;;;-151.14;100.00;62537.16;5053892;28;19921;-85
2023/06/26 08:27:45;;;;;;;;;;;22.00;74.10;;;-151.14;100.00;62537.16;5053729;28;19921;-85
2023/06/26 08:30:13;;;;;;;;;;;22.10;74.40;;;-151.14;100.00;62537.16;5070195;28;20250;-85
2023/06/26 08:32:41;;;;;;;;;;;22.10;74.60;;;-151.14;100.00;62537.16;5053057;28;19926;-85
2023/06/26 08:35:11;;;;;;;;;;;22.10;74.40;;;-151.14;100.00;62537.16;5070014;28;19927;-85
2023/06/26 08:37:39;;;;;;;;;;;22.10;74.20;;;-151.14;100.00;62537.16;5070378;28;19920;-85
2023/06/26 08:40:08;;;;;;;;;;;22.10;74.20;;;21.44;100.00;62537.16;5070174;28;19921;-85
2023/06/26 08:42:36;;;;;;;;;;;22.10;74.40;;;-151.14;100.00;62537.16;5069891;28;19920;-85
2023/06/26 08:45:04;;;;;;;;;;;22.10;74.40;;;-151.14;100.00;62537.16;5070234;28;19921;-87
2023/06/26 08:47:34;;;;;;;;;;;22.20;74.30;;;-151.14;100.00;62537.16;5053640;28;19920;-85
2023/06/26 08:50:05;;;;;;;;;;;22.20;74.30;;;-151.14;100.00;62537.16;5053522;28;19921;-85
2023/06/26 08:52:36;;;;;;;;;;;22.20;74.30;;;-151.14;100.00;62537.16;5069668;28;19921;-85
2023/06/26 08:55:07;;;;;;;;;;;22.20;74.20;;;-151.14;100.00;62537.16;5069994;28;20208;-86
2023/06/26 08:57:36;;;;;;;;;;;22.20;74.20;;;-151.14;100.00;62537.16;5086972;28;19920;-85
2023/06/26 09:00:06;;;;;;;;;;;22.20;73.80;;;-151.14;100.00;62537.16;5070112;28;19927;-85
2023/06/26 09:02:35;;;;;;;;;;;22.20;73.50;;;-151.14;100.00;62537.16;5069382;28;19920;-86
2023/06/26 09:05:03;;;;;;;;;;;22.20;73.70;;;-151.14;100.00;62537.16;5053179;28;19920;-85
2023/06/26 09:07:31;;;;;;;;;;;22.30;73.70;;;-151.14;100.00;62537.16;5053359;28;19994;-86
2023/06/26 09:10:00;;;;;;;;;;;22.20;73.50;;;-151.14;100.00;62537.16;5090920;28;19926;-86
2023/06/26 09:12:28;;;;;;;;;;;22.30;73.50;;;28.66;100.00;62537.16;5093117;28;19920;-85
2023/06/26 09:14:56;;;;;;;;;;;22.30;73.60;;;-151.14;100.00;62537.16;5093423;28;19927;-85
2023/06/26 09:17:26;;;;;;;;;;;22.30;73.60;;;-151.14;100.00;62537.16;5093708;28;19920;-85
2023/06/26 09:19:54;;;;;;;;;;;22.20;73.50;;;-151.14;100.00;62537.16;5094663;28;20212;-85
2023/06/26 09:22:22;;;;;;;;;;;22.20;73.50;;;-151.14;100.00;62537.16;5092909;28;19920;-85
2023/06/26 09:24:50;;;;;;;;;;;22.20;73.60;;;-151.14;100.00;62537.16;5093268;28;19920;-85
2023/06/26 09:27:20;;;;;;;;;;;22.20;73.60;;;18.08;100.00;62537.16;5093396;28;19920;-85
2023/06/26 09:29:48;;;;;;;;;;;22.20;73.70;;;-151.14;100.00;62537.16;5093248;28;19942;-85
2023/06/26 09:32:16;;;;;;;;;;;22.20;73.80;;;-151.14;100.00;62537.16;5075723;28;19926;-85
2023/06/26 09:34:44;;;;;;;;;;;22.20;73.70;;;;;;5093123;28;20205;-86
2023/06/26 09:37:13;;;;;;;;;;;22.20;73.80;;;-151.14;100.00;62537.16;5093435;28;19920;-86
2023/06/26 09:39:41;;;;;;;;;;;22.20;73.70;;;-151.14;100.00;62537.16;5093140;28;19926;-85
2023/06/26 09:42:09;;;;;;;;;;;22.20;73.80;;;-151.14;100.00;62537.16;5075854;28;20230;-85
2023/06/26 09:44:44;;;;;;;;;;;22.20;73.80;;;-151.14;100.00;62537.16;5092874;28;19920;-85
2023/06/26 09:47:12;;;;;;;;;;;22.20;73.70;;;-151.14;100.00;62537.16;5110125;28;19927;-86
2023/06/26 09:49:42;;;;;;;;;;;22.20;73.70;;;-151.14;100.00;62537.16;5076351;28;19920;-85
2023/06/26 09:52:10;;;;;;;;;;;22.20;73.70;;;-151.14;100.00;62537.16;5093452;28;19927;-86
2023/06/26 09:54:38;;;;;;;;;;;22.20;73.80;;;-151.14;100.00;62537.16;5092876;28;19920;-85
2023/06/26 09:57:09;;;;;;;;;;;22.20;73.80;;;-151.14;100.00;62537.16;5076036;28;20234;-85
2023/06/26 09:59:37;;;;;;;;;;;22.20;73.80;;;-151.14;100.00;62537.16;5094031;28;19920;-86
2023/06/26 10:02:07;;;;;;;;;;;22.20;73.80;;;-151.14;100.00;62537.16;5093319;28;19926;-85
2023/06/26 10:04:35;;;;;;;;;;;22.20;73.80;;;-151.14;100.00;62537.16;5092543;28;20123;-85
2023/06/26 10:07:05;;;;;;;;;;;22.20;73.80;;;-151.14;100.00;62537.16;5092552;28;19920;-86
2023/06/26 10:09:33;;;;;;;;;;;22.20;73.80;;;-151.14;100.00;62537.16;5092593;28;19920;-85
2023/06/26 10:12:04;;;;;;;;;;;22.20;73.90;;;-151.14;100.00;62537.16;5091934;28;19927;-85
2023/06/26 10:14:34;;;;;;;;;;;22.20;73.80;;;-151.14;100.00;62537.16;5092564;28;19920;-85
2023/06/26 10:17:04;;;;;;;;;;;22.20;73.80;;;21.46;100.00;62537.16;5075498;28;19920;-85
2023/06/26 10:19:34;;;;;;;;;;;22.20;73.90;;;39.25;100.00;62537.16;5091035;28;20204;-85
2023/06/26 10:22:02;;;;;;;;;;;22.20;73.90;;;-151.14;100.00;62537.16;5091441;28;20093;-85
2023/06/26 10:24:32;;;;;;;;;;;22.20;73.80;;;18.08;100.00;62537.16;5075489;28;19927;-85
2023/06/26 10:27:01;;;;;;;;;;;22.20;73.80;;;-151.14;100.00;62537.16;5092130;28;19935;-85
2023/06/26 10:29:29;;;;;;;;;;;22.20;73.80;;;-151.14;100.00;62537.16;5092232;28;19920;-85
2023/06/26 10:31:58;;;;;;;;;;;22.20;73.80;;;-151.14;100.00;62537.16;5091409;28;20119;-85
2023/06/26 10:34:25;;;;;;;;;;;22.20;73.80;;;-151.14;100.00;62537.16;5093152;28;19927;-85
2023/06/26 10:37:01;;;;;;;;;;;22.20;73.70;;;-151.14;100.00;62537.16;5091839;28;19920;-85
2023/06/26 10:39:50;;;;;;;;;;;22.20;73.80;;;-151.14;100.00;62537.16;5092131;28;19926;-85
2023/06/26 10:42:19;;;;;;;;;;;22.10;73.90;;;-151.14;100.00;62537.16;5108434;28;19920;-85
2023/06/26 10:44:47;;;;;;;;;;;22.10;73.60;;;-151.14;100.00;62537.16;5091987;28;19934;-84
2023/06/26 10:47:30;;;;;;;;;;;22.10;73.70;;;39.25;100.00;62537.16;5091691;28;19920;-85
2023/06/26 10:49:58;;;;;;;;;;;22.10;73.60;;;-151.14;100.00;62537.16;5108933;28;19926;-85
2023/06/26 10:52:28;;;;;;;;;;;22.10;73.60;;;39.25;100.00;62537.16;5074265;28;19920;-84
2023/06/26 10:54:56;;;;;;;;;;;22.10;73.70;;;-151.14;100.00;62537.16;5075203;28;19942;-84
2023/06/26 10:57:24;;;;;;;;;;;22.10;73.60;;;-151.14;100.00;62537.16;5091679;28;19942;-85
2023/06/26 11:00:10;;;;;;;;;;;22.10;73.60;;;-151.14;100.00;62537.16;5074806;28;19920;-84
2023/06/26 11:02:51;;;;;;;;;;;22.10;73.70;;;-151.14;100.00;62537.16;5091053;28;19927;-84
2023/06/26 11:05:26;;;;;;;;;;;22.10;73.50;;;21.41;100.00;62537.16;5091595;28;19920;-84
2023/06/26 11:08:06;;;;;;;;;;;22.10;73.40;;;-151.14;100.00;62537.16;5091443;28;20119;-84
2023/06/26 11:10:49;;;;;;;;;;;22.10;73.50;;;;;;5074745;28;19920;-84